Latest Weather Observations for Gelantipy

IDV60801

Issued at 7:05 pm EDT Thursday 18 December 2014 (issued every 30 minutes, with the page automatically refreshed every 10 minutes)

About weather observations | Map of weather stations | Latest weather observations for VIC | Other Formats
Station Details ID: 084142 Name: GELANTIPY Lat: -37.22 Lon: 148.26 Height: 755.0 m
Data from the previous 72 hours. | See also: Recent months at Gelantipy
Date/Time
EDT
Temp
°C
App
Temp
°C
Dew
Point
Rel
Hum
%
Delta-T
°C
Wind Press
QNH
hPa
Press
MSL
hPa
Rain
since 9 am
mm
Dir
 
Spd
km/h
Gust
km/h
Spd
kts
Gust
kts
18/07:00pm 13.3 10.0 9.5 78 2.0 SSW 17 30 9 16 1008.0 1005.8 0.0
18/06:30pm 14.8 11.5 9.6 71 2.8 SSW 17 26 9 14 1007.2 1004.9 0.0
18/06:20pm 16.1 12.2 8.8 62 3.9 SSW 19 30 10 16 1006.6 1004.3 0.0
18/06:00pm 21.1 17.6 5.5 36 8.1 WNW 13 24 7 13 1005.8 1003.5 0.0
18/05:30pm 20.1 14.9 3.8 34 8.1 NW 20 30 11 16 1005.9 1003.6 0.0
18/05:00pm 19.5 15.2 5.2 39 7.3 WNW 17 24 9 13 1006.2 1003.9 0.0
18/04:30pm 19.9 15.8 4.4 36 7.8 NW 15 24 8 13 1006.1 1003.8 0.0
18/04:00pm 20.7 16.9 7.7 43 7.0 NW 17 32 9 17 1006.1 1003.8 0.0
18/03:30pm 20.0 16.0 6.7 42 7.0 WNW 17 28 9 15 1006.4 1004.1 0.0
18/03:00pm 20.1 15.5 5.4 38 7.5 WNW 19 30 10 16 1006.3 1004.0 0.0
18/02:30pm 21.6 17.5 6.3 37 8.1 WNW 17 35 9 19 1006.1 1003.8 0.0
18/02:00pm 21.6 16.4 3.3 30 9.1 WNW 20 39 11 21 1006.0 1003.7 0.0
18/01:30pm 21.5 16.8 6.2 37 8.0 W 20 32 11 17 1006.1 1003.8 0.0
18/01:00pm 21.4 16.5 6.9 39 7.7 WNW 22 32 12 17 1006.2 1003.9 0.0
18/12:30pm 21.1 19.1 11.4 54 5.6 NW 13 20 7 11 1006.3 1004.0 0.0
18/12:00pm 20.5 18.1 8.8 47 6.4 NNE 11 19 6 10 1006.7 1004.4 0.0
18/11:30am 19.0 16.3 10.3 57 4.9 E 15 19 8 10 1006.9 1004.7 0.0
18/11:00am 18.3 15.1 8.3 52 5.4 ENE 15 20 8 11 1007.3 1005.0 0.0
18/10:30am 17.6 14.8 8.7 56 4.8 ENE 13 20 7 11 1007.5 1005.2 0.0
18/10:00am 16.9 14.6 9.1 60 4.2 NE 11 17 6 9 1007.8 1005.5 0.0
18/09:30am 15.8 12.8 7.6 58 4.3 NNE 13 20 7 11 1007.9 1005.6 0.0
18/09:00am 14.7 11.5 8.4 66 3.3 NNE 15 20 8 11 1008.2 1006.0 0.0
18/08:30am 14.4 12.3 9.6 73 2.6 ENE 11 19 6 10 1008.3 1006.1 0.0
18/08:00am 13.2 10.9 8.9 75 2.3 NNE 11 15 6 8 1008.5 1006.2 0.0
18/07:30am 12.3 9.3 9.1 81 1.7 NNE 15 20 8 11 1008.2 1006.0 0.0
18/07:00am 11.2 8.5 9.1 87 1.1 NNE 13 17 7 9 1008.0 1005.8 0.0
18/06:30am 9.3 7.6 8.2 93 0.6 N 7 11 4 6 1008.1 1005.9 0.0
18/06:00am 8.7 4.9 7.5 92 0.6 N 17 20 9 11 1007.8 1005.5 0.0
18/05:30am 8.4 4.9 7.3 93 0.5 N 15 17 8 9 1007.3 1005.0 0.0
18/05:00am 8.5 5.0 7.3 92 0.6 NNE 15 17 8 9 1007.3 1005.0 0.0
18/04:30am 9.3 5.6 7.9 91 0.7 NNE 17 20 9 11 1007.3 1005.0 0.0
18/04:00am 9.7 5.6 7.8 88 1.0 NNE 19 24 10 13 1007.1 1004.8 0.0
18/03:30am 10.2 6.2 8.1 87 1.1 NNE 19 24 10 13 1007.1 1004.8 0.0
18/03:00am 10.2 6.5 8.1 87 1.1 NNE 17 22 9 12 1007.3 1005.0 0.0
18/02:30am 9.8 5.7 7.9 88 1.0 NNE 19 26 10 14 1007.5 1005.2 0.0
18/02:00am 9.9 6.2 7.8 87 1.1 NNE 17 24 9 13 1007.9 1005.6 0.0
18/01:30am 10.3 6.0 7.9 85 1.2 NNE 20 30 11 16 1008.2 1006.0 0.0
18/01:00am 10.0 7.4 7.8 86 1.1 N 11 13 6 7 1008.7 1006.4 0.0
18/12:30am 10.0 7.7 7.4 84 1.3 N 9 11 5 6 1009.0 1006.7 0.0
18/12:00am 10.1 9.5 7.5 84 1.3 CALM 0 0 0 0 1009.4 1007.2 0.0
 
Date/Time
EDT
Temp
°C
App
Temp
°C
Dew
Point
Rel
Hum
%
Delta-T
°C
Wind Press
QNH
hPa
Press
MSL
hPa
Rain
since 9 am
mm
Dir
 
Spd
km/h
Gust
km/h
Spd
kts
Gust
kts
17/11:30pm 10.1 9.5 7.3 83 1.4 CALM 0 6 0 3 1009.8 1007.6 0.0
17/11:00pm 10.1 8.3 7.3 83 1.4 SSE 6 9 3 5 1010.1 1007.8 0.0
17/10:30pm 10.2 8.2 7.1 81 1.5 SSE 7 11 4 6 1010.4 1008.2 0.0
17/10:00pm 10.3 8.5 7.2 81 1.5 SSE 6 9 3 5 1010.5 1008.3 0.0
17/09:30pm 10.4 8.4 7.3 81 1.5 S 7 13 4 7 1010.5 1008.3 0.0
17/09:00pm 10.6 7.8 6.9 78 1.8 SSE 11 15 6 8 1010.4 1008.2 0.0
17/08:30pm 10.9 8.6 7.4 79 1.8 S 9 15 5 8 1010.2 1007.9 0.0
17/08:00pm 11.2 8.6 7.7 79 1.8 S 11 19 6 10 1009.8 1007.6 0.0
17/07:30pm 12.4 9.9 8.1 75 2.2 S 11 17 6 9 1009.1 1006.8 0.0
17/07:00pm 13.0 9.8 8.3 73 2.4 S 15 26 8 14 1008.7 1006.4 0.0
17/06:30pm 14.3 11.2 8.9 70 2.9 S 15 22 8 12 1007.9 1005.6 0.0
17/06:00pm 15.8 13.1 9.0 64 3.6 SSW 13 20 7 11 1007.6 1005.3 0.0
17/05:30pm 16.7 14.1 7.9 56 4.6 S 11 17 6 9 1007.6 1005.3 0.0
17/05:00pm 16.9 13.5 7.5 54 4.9 SW 15 20 8 11 1007.8 1005.5 0.0
17/04:30pm 16.5 14.5 8.5 59 4.2 SSE 9 17 5 9 1007.9 1005.6 0.0
17/04:00pm 15.3 12.0 6.6 56 4.4 ESE 13 19 7 10 1008.0 1005.8 0.0
17/03:30pm 16.2 12.9 6.3 52 5.0 S 13 19 7 10 1008.1 1005.9 0.0
17/03:00pm 16.0 12.8 6.7 54 4.8 SSE 13 20 7 11 1008.0 1005.8 0.0
17/02:30pm 15.7 12.5 6.7 55 4.6 SSE 13 20 7 11 1008.1 1005.9 0.0
17/02:00pm 15.3 12.5 7.1 58 4.2 SSE 11 22 6 12 1008.2 1006.0 0.0
17/01:30pm 14.9 11.9 6.2 56 4.4 SSE 11 20 6 11 1008.5 1006.2 0.0
17/01:00pm 14.8 11.4 6.1 56 4.4 SSE 13 20 7 11 1008.7 1006.4 0.0
17/12:30pm 13.9 10.7 5.3 56 4.2 SSE 11 20 6 11 1008.7 1006.4 0.0
17/12:00pm 13.4 9.9 5.6 59 3.8 SSE 13 22 7 12 1008.8 1006.5 0.0
17/11:30am 13.6 10.1 7.4 66 3.2 SE 15 22 8 12 1008.6 1006.3 0.0
17/11:00am 13.1 10.5 6.2 63 3.4 SSE 9 15 5 8 1008.5 1006.2 0.0
17/10:30am 12.0 8.7 4.7 61 3.5 S 11 20 6 11 1008.3 1006.1 0.0
17/10:00am 12.5 9.2 4.5 58 3.8 SSW 11 19 6 10 1008.1 1005.9 0.0
17/09:30am 11.7 8.4 4.7 62 3.3 SW 11 19 6 10 1008.1 1005.9 0.0
17/09:00am 11.2 8.1 3.7 60 3.5 SSW 9 17 5 9 1008.0 1005.8 0.0
17/08:30am 10.2 6.3 3.5 63 3.1 SSW 13 19 7 10 1007.9 1005.6 0.0
17/08:00am 9.6 5.4 3.6 66 2.7 SW 15 22 8 12 1007.4 1005.1 0.0
17/07:30am 8.8 4.1 3.4 69 2.4 SW 17 26 9 14 1006.7 1004.4 0.0
17/07:00am 8.1 3.1 3.6 73 2.0 WSW 19 26 10 14 1006.4 1004.1 0.0
17/06:30am 7.0 2.3 3.4 78 1.6 SW 17 22 9 12 1006.0 1003.7 0.0
17/06:00am 6.4 1.7 3.2 80 1.4 SW 17 22 9 12 1005.5 1003.2 0.0
17/05:30am 6.7 2.7 3.1 78 1.6 SW 13 20 7 11 1005.0 1002.7 0.0
17/05:00am 7.3 3.7 3.2 75 1.8 SSW 11 17 6 9 1004.6 1002.3 0.0
17/04:30am 8.1 4.6 3.4 72 2.1 SSW 11 19 6 10 1004.1 1001.8 0.0
17/04:00am 8.9 5.1 3.9 71 2.3 SSW 13 20 7 11 1003.8 1001.5 0.0
17/03:30am 9.1 6.2 4.7 74 2.0 SSW 9 15 5 8 1003.8 1001.5 0.0
17/03:00am 9.2 5.6 5.0 75 2.0 SSW 13 22 7 12 1003.5 1001.2 0.0
17/02:30am 9.5 6.0 5.5 76 1.9 SSW 13 22 7 12 1003.4 1001.1 0.0
17/02:00am 10.4 7.8 6.0 74 2.1 S 9 15 5 8 1003.6 1001.3 0.0
17/01:30am 10.6 8.0 6.0 73 2.2 S 9 17 5 9 1003.5 1001.2 0.0
17/01:00am 10.6 8.5 6.6 76 2.0 S 7 15 4 8 1003.3 1001.0 0.0
17/12:30am 10.6 7.7 6.6 76 2.0 SSW 11 20 6 11 1003.2 1000.8 0.0
17/12:00am 10.7 7.8 6.6 76 2.0 SSW 11 20 6 11 1003.2 1000.8 0.0
 
Date/Time
EDT
Temp
°C
App
Temp
°C
Dew
Point
Rel
Hum
%
Delta-T
°C
Wind Press
QNH
hPa
Press
MSL
hPa
Rain
since 9 am
mm
Dir
 
Spd
km/h
Gust
km/h
Spd
kts
Gust
kts
16/11:30pm 10.9 7.8 7.4 79 1.8 SSW 13 20 7 11 1002.7 1000.4 0.0
16/11:00pm 11.4 7.8 8.3 81 1.6 S 17 28 9 15 1002.5 1000.2 0.0
16/10:30pm 12.7 10.5 10.8 88 1.0 S 13 24 7 13 1002.4 1000.1 0.0
16/10:00pm 12.8 10.6 10.7 87 1.1 S 13 20 7 11 1002.2 999.9 0.0
16/09:30pm 13.1 10.3 11.3 89 1.0 S 17 28 9 15 1002.2 999.9 0.0
16/09:00pm 14.0 11.4 12.0 88 1.1 SSW 17 28 9 15 1001.3 999.0 0.0
16/08:30pm 14.9 11.6 12.9 88 1.1 S 22 37 12 20 1000.4 998.0 0.0
16/08:25pm 15.5 11.5 13.0 85 1.4 S 26 41 14 22 1000.2 997.8 0.0
16/08:15pm 20.6 17.3 11.5 56 5.2 W 20 52 11 28 999.2 996.8 0.0
16/08:14pm 21.7 18.4 10.8 50 6.2 W 19 52 10 28 999.1 996.7 0.0
16/08:00pm 23.7 17.9 2.5 25 10.6 WNW 22 33 12 18 998.2 995.8 0.0
16/07:30pm 24.1 17.7 3.4 26 10.5 WNW 26 43 14 23 997.8 995.4 0.0
16/07:00pm 24.1 18.7 4.5 28 10.2 NW 22 43 12 23 996.7 994.3 0.0
16/06:45pm 24.7 17.8 2.8 24 11.0 WNW 28 46 15 25 996.8 994.4 0.0
16/06:30pm 25.5 19.5 5.1 27 10.7 WNW 26 37 14 20 996.5 994.1 0.0
16/06:00pm 25.8 18.2 3.1 23 11.6 WNW 32 52 17 28 996.5 994.1 0.0
16/05:33pm 26.2 19.5 3.4 23 11.7 WNW 28 48 15 26 996.5 994.1 0.0
16/05:30pm 26.4 19.8 2.3 21 12.1 WNW 26 48 14 26 996.6 994.2 0.0
16/05:00pm 26.8 22.6 5.7 26 11.4 NW 17 26 9 14 996.8 994.4 0.0
16/04:30pm 26.4 19.7 1.7 20 12.3 NW 26 46 14 25 997.2 994.7 0.0
16/04:02pm 26.5 19.9 4.3 24 11.6 WNW 28 48 15 26 997.4 994.9 0.0
16/04:00pm 26.4 20.3 3.0 22 12.0 WNW 24 39 13 21 997.4 994.9 0.0
16/03:49pm 26.7 20.0 3.9 23 11.8 NW 28 52 15 28 997.5 995.1 0.0
16/03:30pm 27.5 23.8 7.9 29 10.9 W 17 30 9 16 997.6 995.2 0.0
16/03:00pm 27.2 20.9 5.5 25 11.7 W 28 41 15 22 997.5 995.1 0.0
16/02:30pm 27.0 21.1 7.5 29 10.8 WNW 28 41 15 22 997.4 994.9 0.0
16/02:00pm 26.6 21.2 9.5 34 9.8 NW 28 39 15 21 997.3 994.8 0.0
16/01:35pm 26.4 20.6 7.9 31 10.3 NW 28 50 15 27 997.2 994.7 0.0
16/01:30pm 26.5 20.8 8.5 32 10.1 NW 28 43 15 23 997.3 994.8 0.0
16/01:04pm 25.9 18.6 8.8 34 9.6 WNW 37 61 20 33 997.3 994.8 0.0
16/01:00pm 25.7 18.5 9.1 35 9.4 WNW 37 61 20 33 997.5 995.1 0.0
16/12:45pm 25.6 19.1 8.1 33 9.7 NW 32 70 17 38 997.6 995.2 0.0
16/12:31pm 25.5 20.0 9.3 36 9.2 NW 28 48 15 26 997.6 995.2 0.0
16/12:30pm 25.5 21.0 11.3 41 8.3 NW 26 48 14 26 997.6 995.2 0.0
16/12:00pm 25.7 23.2 14.2 49 7.1 NW 20 32 11 17 997.9 995.5 0.0
16/11:30am 25.1 20.2 11.3 42 8.1 NW 28 56 15 30 998.0 995.6 0.0
16/11:00am 25.0 21.3 13.9 50 6.8 NW 26 50 14 27 998.1 995.7 0.0
16/10:59am 24.9 20.4 12.5 46 7.4 NW 28 50 15 27 998.1 995.7 0.0
16/10:55am 24.8 20.5 12.1 45 7.5 NW 26 50 14 27 998.1 995.7 0.0
16/10:30am 24.6 20.3 11.9 45 7.5 NNW 26 52 14 28 998.3 995.9 0.0
16/10:00am 23.7 18.7 13.3 52 6.3 N 32 48 17 26 998.1 995.7 0.0
16/09:30am 23.0 17.5 12.6 52 6.1 N 33 52 18 28 998.7 996.3 0.0
16/09:26am 22.7 17.2 12.6 53 6.0 N 33 52 18 28 998.9 996.5 0.0
16/09:00am 22.1 15.7 12.1 53 5.9 N 37 52 20 28 998.9 996.5 0.0
16/08:30am 21.1 13.8 11.4 54 5.6 NNE 41 61 22 33 999.4 997.0 0.0
16/08:13am 20.6 15.0 11.5 56 5.2 N 32 50 17 27 999.6 997.2 0.0
16/08:00am 19.3 13.8 11.8 62 4.3 NNE 32 43 17 23 999.6 997.2 0.0
16/07:30am 17.3 12.5 11.6 69 3.2 NNE 28 44 15 24 1000.1 997.7 0.0
16/07:00am 17.1 12.7 11.8 71 3.0 N 26 35 14 19 1000.9 998.5 0.0
16/06:30am 17.1 13.0 11.6 70 3.1 NNE 24 30 13 16 1001.2 998.9 0.0
16/06:00am 17.4 12.8 11.2 67 3.5 N 26 35 14 19 1001.6 999.2 0.0
16/05:30am 17.2 12.3 11.2 68 3.4 N 28 39 15 21 1002.4 1000.1 0.0
16/05:00am 17.1 11.9 11.6 70 3.1 NNE 30 43 16 23 1001.1 998.8 0.0
16/04:30am 17.1 11.8 11.2 68 3.3 NNE 30 39 16 21 1001.6 999.2 0.0
16/04:00am 17.3 11.4 11.3 68 3.4 N 33 48 18 26 1002.5 1000.2 0.0
16/03:30am 16.5 11.0 11.9 74 2.6 N 32 39 17 21 1002.6 1000.3 0.0
16/03:00am 17.1 11.6 11.8 71 3.0 NNE 32 44 17 24 1003.2 1000.8 0.0
16/02:30am 17.4 12.6 11.7 69 3.2 NNE 28 44 15 24 1003.8 1001.5 0.0
16/02:03am 17.1 12.5 12.2 73 2.8 NNE 28 46 15 25 1004.0 1001.7 0.0
16/02:00am 17.3 13.4 12.2 72 2.9 N 24 39 13 21 1005.0 1002.7 0.0
16/01:30am 17.0 13.6 12.5 75 2.6 NNE 22 30 12 16 1005.7 1003.4 0.0
16/01:00am 17.2 14.4 12.5 74 2.7 NE 19 30 10 16 1005.7 1003.4 0.0
16/12:30am 17.5 15.8 12.6 73 2.8 NE 13 20 7 11 1007.1 1004.8 0.0
16/12:00am 17.8 15.0 12.5 71 3.1 N 19 26 10 14 1008.3 1006.1 0.0
 
Date/Time
EDT
Temp
°C
App
Temp
°C
Dew
Point
Rel
Hum
%
Delta-T
°C
Wind Press
QNH
hPa
Press
MSL
hPa
Rain
since 9 am
mm
Dir
 
Spd
km/h
Gust
km/h
Spd
kts
Gust
kts
15/11:30pm 17.7 15.5 12.2 70 3.2 ENE 15 22 8 12 1006.6 1004.3 0.0
15/11:00pm 17.0 14.0 12.5 75 2.6 N 20 26 11 14 1007.6 1005.3 0.0
15/10:30pm 17.4 15.7 12.5 73 2.8 N 13 19 7 10 1008.2 1006.0 0.0
15/10:00pm 17.6 14.6 12.5 72 2.9 NNE 20 28 11 15 1008.0 1005.8 0.0
15/09:30pm 16.4 14.6 13.3 82 1.8 N 15 19 8 10 1008.3 1006.1 0.0
15/09:00pm 16.4 15.7 13.1 81 1.9 N 9 13 5 7 1008.0 1005.8 0.0
15/08:30pm 18.8 18.7 13.9 73 2.9 SSE 7 19 4 10 1008.3 1006.1 0.0
15/08:00pm 18.6 17.8 14.1 75 2.7 SE 11 17 6 9 1008.7 1006.4 0.0
15/07:30pm 19.3 18.4 12.6 65 3.9 SSW 9 15 5 8 1008.3 1006.1 0.0

Other Formats:

Comma delimited format used in spreadsheet applications
http://www.bom.gov.au/fwo/IDV60801/IDV60801.94913.axf

JavaScript Object Notation format (JSON) in row-major order
http://www.bom.gov.au/fwo/IDV60801/IDV60801.94913.json